Time;durP1;ratioP1;P1;durP2;ratioP2;P2;SDS_P1;SDS_P2;PMS_P1;PMS_P2;Temp;Humidity;BMP_temperature;BMP_pressure;BME280_temperature;BME280_humidity;BME280_pressure;Samples;Min_cycle;Max_cycle;Signal;HPM_P1;HPM_P2
2024/02/07 00:00:49;;;;;;;7.97;4.13;;;;;;;-5.31;70.79;97891.31;5046917;28;20827;-69
2024/02/07 00:03:14;;;;;;;8.07;4.22;;;;;;;-5.33;71.06;97905.28;5049255;28;20033;-66
2024/02/07 00:05:40;;;;;;;7.45;4.40;;;;;;;-5.35;71.19;97904.50;5048865;28;20109;-67
2024/02/07 00:08:05;;;;;;;8.43;4.25;;;;;;;-5.38;71.31;97902.03;5048063;28;20353;-67
2024/02/07 00:10:32;;;;;;;6.88;4.47;;;;;;;-5.40;70.98;97903.88;5010844;28;20124;-67
2024/02/07 00:12:57;;;;;;;7.20;4.30;;;;;;;-5.49;71.39;97891.28;5028071;28;20037;-65
2024/02/07 00:15:23;;;;;;;9.32;4.20;;;;;;;-5.26;71.46;97903.22;5027703;28;20465;-66
2024/02/07 00:17:49;;;;;;;9.15;4.38;;;;;;;-5.07;71.13;97903.19;5028171;28;20078;-66
2024/02/07 00:20:15;;;;;;;7.97;3.45;;;;;;;-4.95;70.47;97903.53;5044392;28;20397;-66
2024/02/07 00:22:40;;;;;;;7.85;3.80;;;;;;;-4.81;69.94;97903.72;5047606;28;20033;-64
2024/02/07 00:25:06;;;;;;;6.90;4.22;;;;;;;-4.70;70.08;97912.78;5048650;28;20033;-67
2024/02/07 00:27:33;;;;;;;6.75;4.20;;;;;;;-4.57;69.18;97898.22;5048157;28;20442;-67
2024/02/07 00:29:59;;;;;;;6.75;4.50;;;;;;;-4.47;69.37;97903.78;5047179;27;20086;-66
2024/02/07 00:32:25;;;;;;;6.82;4.57;;;;;;;-4.40;69.12;97899.09;5048429;28;20033;-67
2024/02/07 00:34:51;;;;;;;9.18;3.70;;;;;;;-4.32;69.39;97902.19;5048345;28;20463;-66
2024/02/07 00:37:16;;;;;;;9.80;4.57;;;;;;;-4.25;69.15;97906.19;5048464;28;20043;-67
2024/02/07 00:39:44;;;;;;;9.15;4.38;;;;;;;-4.09;68.75;97911.47;5047161;28;20066;-67
2024/02/07 00:42:10;;;;;;;7.13;4.70;;;;;;;-4.06;68.57;97905.22;5048386;28;20036;-68
2024/02/07 00:44:39;;;;;;;7.82;4.20;;;;;;;-3.97;68.18;97898.69;5048496;28;20333;-68
2024/02/07 00:47:05;;;;;;;5.60;4.18;;;;;;;-3.97;67.74;97891.66;5047770;28;20104;-67
2024/02/07 00:49:31;;;;;;;7.97;4.50;;;;;;;-4.00;67.67;97891.84;5046173;28;20036;-66
2024/02/07 00:51:57;;;;;;;6.30;3.90;;;;;;;-4.19;67.79;97856.19;5048224;28;20037;-67
2024/02/07 00:54:24;;;;;;;7.63;3.85;;;;;;;-3.89;67.32;97905.19;5049297;28;20048;-66
2024/02/07 00:56:50;;;;;;;7.28;3.83;;;;;;;-4.22;67.25;97835.47;5051357;28;20029;-63
2024/02/07 00:59:15;;;;;;;8.52;4.10;;;;;;;-3.80;67.30;97903.03;5051043;28;20412;-68
2024/02/07 01:01:41;;;;;;;5.80;3.53;;;;;;;-3.77;67.63;97893.22;5050901;28;20228;-67
2024/02/07 01:04:07;;;;;;;7.03;3.55;;;;;;;-3.97;67.35;97859.47;5050061;28;20437;-67
2024/02/07 01:06:33;;;;;;;6.57;3.70;;;;;;;-3.74;67.44;97902.69;5050797;28;20436;-67
2024/02/07 01:08:58;;;;;;;7.13;3.92;;;;;;;-3.79;67.10;97891.63;5050678;28;20037;-67
2024/02/07 01:11:24;;;;;;;8.00;3.95;;;;;;;-3.69;66.40;97900.66;5051168;28;20025;-67
2024/02/07 01:13:50;;;;;;;6.75;3.88;;;;;;;-4.11;67.09;97820.97;5051435;28;20107;-67
2024/02/07 01:16:16;;;;;;;6.70;3.45;;;;;;;-3.69;67.14;97899.84;5051233;28;20040;-64
2024/02/07 01:18:41;;;;;;;5.35;3.67;;;;;;;-3.70;66.52;97882.47;5050772;28;20033;-65
2024/02/07 01:21:08;;;;;;;5.40;3.60;;;;;;;-3.68;66.49;97891.06;5050926;28;20055;-67
2024/02/07 01:23:33;;;;;;;5.82;3.72;;;;;;;-3.73;66.32;97877.41;5050855;28;20036;-66
2024/02/07 01:25:59;;;;;;;6.97;4.40;;;;;;;-3.82;66.67;97874.31;5051157;28;20033;-67
2024/02/07 01:28:25;;;;;;;6.47;3.78;;;;;;;-3.87;66.59;97868.50;5050681;28;20028;-66
2024/02/07 01:30:50;;;;;;;6.15;3.97;;;;;;;-4.01;66.55;97882.31;5050839;27;20025;-66
2024/02/07 01:33:16;;;;;;;6.97;3.55;;;;;;;-4.14;67.06;97871.66;5050847;28;20456;-66
2024/02/07 01:35:42;;;;;;;6.55;3.63;;;;;;;-4.29;67.44;97867.22;5050984;28;20090;-66
2024/02/07 01:38:07;;;;;;;6.55;3.95;;;;;;;-4.46;67.77;97858.50;5050346;28;20025;-65
2024/02/07 01:40:42;;;;;;;5.43;3.70;;;;;;;-4.62;67.79;97859.25;5049844;28;20071;-66
2024/02/07 01:43:12;;;;;;;4.38;3.08;;;;;;;-4.76;68.50;97867.78;5051093;28;20487;-66
2024/02/07 01:45:38;;;;;;;6.20;3.70;;;;;;;-4.90;68.20;97857.16;5050354;28;20109;-67
2024/02/07 01:48:05;;;;;;;7.55;4.10;;;;;;;-5.06;68.63;97852.72;5050182;28;20040;-66
2024/02/07 01:50:30;;;;;;;5.80;3.65;;;;;;;-5.23;68.98;97834.41;5050875;28;20131;-66
2024/02/07 01:53:02;;;;;;;5.63;3.63;;;;;;;-5.55;69.84;97772.44;5050706;28;20089;-66
2024/02/07 01:55:28;;;;;;;7.28;4.03;;;;;;;-5.39;69.43;97821.28;5049484;28;20025;-66
2024/02/07 01:57:56;;;;;;;8.68;4.07;;;;;;;-5.44;69.72;97826.69;5049247;28;20085;-62
2024/02/07 02:00:21;;;;;;;7.97;3.90;;;;;;;-5.60;69.98;97815.31;5049395;28;20092;-68
2024/02/07 02:02:51;;;;;;;5.18;3.78;;;;;;;-5.61;69.91;97840.53;5050609;28;20065;-66
2024/02/07 02:05:17;;;;;;;9.05;4.10;;;;;;;-5.75;69.84;97835.97;5049706;28;20040;-67
2024/02/07 02:07:43;;;;;;;7.05;4.03;;;;;;;-5.84;70.37;97836.38;5050183;28;20036;-65
2024/02/07 02:10:10;;;;;;;8.23;3.65;;;;;;;-5.87;70.66;97829.56;5049490;28;20029;-68
2024/02/07 02:12:37;;;;;;;6.43;3.83;;;;;;;-5.89;70.86;97822.72;5049412;28;20029;-66
2024/02/07 02:15:05;;;;;;;5.60;4.10;;;;;;;-6.20;70.91;97778.97;5050155;28;20036;-69
2024/02/07 02:17:32;;;;;;;8.25;4.43;;;;;;;-5.95;71.13;97816.03;5050197;28;20077;-66
2024/02/07 02:19:58;;;;;;;9.18;4.15;;;;;;;-5.99;71.09;97814.47;5050348;28;20063;-67
2024/02/07 02:22:54;;;;;;;6.95;4.13;;;;;;;-5.93;71.58;97811.59;5050405;28;20161;-67
2024/02/07 02:25:42;;;;;;;6.07;4.15;;;;;;;-5.99;71.48;97807.53;5049913;28;20376;-66
2024/02/07 02:29:04;;;;;;;8.77;3.95;;;;;;;-5.97;71.96;97808.28;5049924;28;20085;-66
2024/02/07 02:31:32;;;;;;;10.20;4.30;;;;;;;-6.11;71.25;97800.28;5065903;28;20375;-66
2024/02/07 02:34:00;;;;;;;9.40;3.97;;;;;;;-6.16;71.67;97808.28;5049724;27;20104;-66
2024/02/07 02:36:26;;;;;;;7.65;4.13;;;;;;;-6.21;71.81;97795.50;5049842;28;20029;-64
2024/02/07 02:38:52;;;;;;;7.15;4.20;;;;;;;-6.24;71.63;97805.19;5050165;28;20028;-67
2024/02/07 02:41:23;;;;;;;7.53;4.35;;;;;;;-6.25;71.71;97806.97;5049821;28;20033;-68
2024/02/07 02:43:49;;;;;;;6.43;4.38;;;;;;;-6.29;72.06;97814.97;5049444;28;20432;-67
2024/02/07 02:46:14;;;;;;;6.32;4.35;;;;;;;-6.32;72.06;97805.53;5049578;28;20116;-67
2024/02/07 02:48:40;;;;;;;9.60;4.68;;;;;;;-6.34;72.40;97796.94;5049760;28;20051;-67
2024/02/07 02:51:05;;;;;;;6.47;4.22;;;;;;;-6.39;72.07;97804.13;5049477;28;20049;-67
2024/02/07 02:53:33;;;;;;;8.82;4.60;;;;;;;-6.40;71.80;97799.84;5049581;28;20554;-67
2024/02/07 02:56:02;;;;;;;7.78;4.93;;;;;;;-6.44;72.48;97804.31;5048629;28;20025;-66
2024/02/07 02:58:29;;;;;;;7.15;4.47;;;;;;;-6.57;72.31;97785.78;5048989;28;20029;-65
2024/02/07 03:00:57;;;;;;;9.23;4.90;;;;;;;-6.55;72.32;97780.53;5049734;28;20064;-68
2024/02/07 03:03:23;;;;;;;6.10;4.28;;;;;;;-6.46;72.70;97802.72;5049404;28;20033;-67
2024/02/07 03:05:58;;;;;;;7.03;4.80;;;;;;;-6.50;72.12;97791.59;5049236;28;20127;-67
2024/02/07 03:08:40;;;;;;;10.80;5.00;;;;;;;-6.45;72.34;97807.84;5049716;28;20126;-65
2024/02/07 03:11:07;;;;;;;10.70;5.10;;;;;;;-6.45;72.46;97800.03;5047735;28;20036;-65
2024/02/07 03:13:34;;;;;;;9.32;5.13;;;;;;;-6.47;72.23;97795.81;5049167;28;20399;-69
2024/02/07 03:16:02;;;;;;;13.85;5.28;;;;;;;-6.46;72.63;97795.75;5049460;28;20025;-67
2024/02/07 03:18:28;;;;;;;11.55;5.47;;;;;;;-6.44;72.51;97787.88;5053119;27;20039;-61
2024/02/07 03:20:55;;;;;;;10.20;5.35;;;;;;;-6.46;72.31;97779.28;5049649;28;20041;-67
2024/02/07 03:23:20;;;;;;;10.20;5.53;;;;;;;-6.66;72.79;97750.59;5054802;27;20049;-69
2024/02/07 03:25:46;;;;;;;9.73;5.03;;;;;;;-6.42;72.73;97783.44;5048874;28;20025;-67
2024/02/07 03:28:15;;;;;;;11.10;5.75;;;;;;;-6.48;72.55;97761.13;5069929;27;20451;-67
2024/02/07 03:30:41;;;;;;;8.80;5.50;;;;;;;-6.46;72.65;97756.69;5133394;27;20030;-67
2024/02/07 03:33:06;;;;;;;9.23;6.00;;;;;;;-6.38;72.95;97769.38;5132936;27;20042;-68
2024/02/07 03:35:32;;;;;;;10.40;5.78;;;;;;;-6.40;73.11;97750.34;5133082;27;20024;-67
2024/02/07 03:37:59;;;;;;;9.35;5.53;;;;;;;-6.63;72.74;97708.84;5121068;27;20029;-65
2024/02/07 03:40:24;;;;;;;12.85;5.95;;;;;;;-6.36;72.73;97747.56;5049236;28;20058;-68
2024/02/07 03:42:51;;;;;;;11.52;6.07;;;;;;;-6.33;72.68;97743.94;5048885;28;20033;-67
2024/02/07 03:45:16;;;;;;;11.77;6.20;;;;;;;-6.29;72.74;97755.09;5049173;28;20033;-68
2024/02/07 03:47:46;;;;;;;11.93;6.15;;;;;;;-6.31;72.68;97742.13;5062602;28;20031;-65
2024/02/07 03:50:15;;;;;;;13.27;6.15;;;;;;;-6.18;73.02;97749.38;5132809;27;20043;-69
2024/02/07 03:52:43;;;;;;;11.85;6.53;;;;;;;-6.20;72.71;97736.41;5132740;27;20050;-65
2024/02/07 03:55:13;;;;;;;11.57;6.25;;;;;;;-6.07;72.89;97737.56;5133174;27;20311;-66
2024/02/07 03:57:42;;;;;;;16.77;7.03;;;;;;;-5.99;72.80;97738.91;5126974;27;20423;-67
2024/02/07 04:00:14;;;;;;;10.80;6.50;;;;;;;-5.96;72.36;97730.94;5132475;27;20043;-67
2024/02/07 04:02:47;;;;;;;13.25;7.10;;;;;;;-5.84;72.84;97727.78;5132970;27;20099;-67
2024/02/07 04:05:13;;;;;;;11.88;7.00;;;;;;;-5.81;72.86;97729.38;5133163;27;20429;-66
2024/02/07 04:07:39;;;;;;;11.40;6.70;;;;;;;-5.78;72.30;97722.25;5126891;27;20046;-67
2024/02/07 04:10:09;;;;;;;14.35;7.32;;;;;;;-5.71;71.98;97722.81;5132584;27;20039;-67
2024/02/07 05:15:41;;;;;;;22.30;11.90;;;;;;;-3.47;67.88;97656.19;5051185;28;20037;-62
2024/02/07 05:18:07;;;;;;;28.60;13.43;;;;;;;-3.72;67.97;97613.16;5050284;28;20033;-64
2024/02/07 05:20:32;;;;;;;26.15;13.63;;;;;;;-3.48;68.19;97651.91;5051136;28;20033;-61
2024/02/07 05:22:58;;;;;;;33.17;13.45;;;;;;;-3.49;68.09;97640.59;5050890;28;20390;-62
2024/02/07 05:25:24;;;;;;;30.67;13.65;;;;;;;-3.40;67.39;97633.13;5050373;28;20033;-63
2024/02/07 05:27:50;;;;;;;26.60;12.68;;;;;;;-3.41;67.03;97636.69;5049307;28;20025;-62
2024/02/07 05:30:16;;;;;;;27.17;13.23;;;;;;;-3.51;67.59;97625.91;5050479;28;20033;-64
2024/02/07 05:32:42;;;;;;;25.48;13.30;;;;;;;-3.43;67.32;97631.53;5049792;28;20043;-63
2024/02/07 05:35:08;;;;;;;22.83;12.48;;;;;;;-3.41;66.28;97628.84;5050791;28;20112;-62
2024/02/07 05:37:35;;;;;;;25.45;12.18;;;;;;;-3.55;66.41;97624.44;5050445;27;20116;-63
2024/02/07 05:40:01;;;;;;;24.35;13.13;;;;;;;-3.60;66.35;97627.31;5050708;28;20036;-63
2024/02/07 05:42:28;;;;;;;28.42;13.50;;;;;;;-3.58;66.06;97617.59;5051097;28;20384;-62
2024/02/07 05:44:54;;;;;;;23.48;13.15;;;;;;;-3.69;66.39;97605.13;5038486;28;20040;-53
2024/02/07 05:47:20;;;;;;;24.25;12.40;;;;;;;-3.73;65.98;97601.00;5035862;27;20044;-56
2024/02/07 05:49:46;;;;;;;23.00;12.95;;;;;;;-3.84;67.02;97613.88;5109493;27;20080;-53
2024/02/07 05:52:14;;;;;;;22.63;12.27;;;;;;;-3.79;66.75;97596.16;5098381;27;20469;-75
2024/02/07 05:54:39;;;;;;;25.98;14.60;;;;;;;-3.86;66.68;97590.44;5035857;28;20037;-64
2024/02/07 05:57:05;;;;;;;31.77;14.13;;;;;;;-3.83;65.98;97578.97;5042715;27;20066;-58
2024/02/07 05:59:30;;;;;;;28.40;13.77;;;;;;;-3.71;65.49;97583.47;5046393;27;20134;-61
2024/02/07 06:01:56;;;;;;;29.98;14.60;;;;;;;-3.78;66.01;97587.38;5038034;28;20890;-63
2024/02/07 06:04:22;;;;;;;32.97;15.02;;;;;;;-3.87;65.63;97572.19;5030722;28;20025;-63
2024/02/07 06:06:49;;;;;;;29.65;14.18;;;;;;;-3.89;65.46;97585.38;5030518;28;20365;-63
2024/02/07 06:09:15;;;;;;;34.28;16.25;;;;;;;-3.91;66.01;97584.63;5035578;28;20025;-63
2024/02/07 06:11:41;;;;;;;35.00;16.17;;;;;;;-4.22;65.20;97540.19;5050977;28;20449;-62
2024/02/07 06:14:10;;;;;;;34.10;16.20;;;;;;;-3.90;65.26;97579.28;5050253;28;20368;-62
2024/02/07 06:16:36;;;;;;;40.92;15.57;;;;;;;-4.01;65.61;97573.84;5050511;28;20460;-63
2024/02/07 06:19:03;;;;;;;36.92;15.93;;;;;;;-3.95;66.04;97588.34;5049446;28;20033;-64
2024/02/07 06:21:29;;;;;;;34.17;15.05;;;;;;;-3.89;65.03;97569.69;5050799;28;20149;-63
2024/02/07 06:23:55;;;;;;;32.83;15.50;;;;;;;-3.94;65.23;97566.50;5050245;28;20040;-64
2024/02/07 06:26:21;;;;;;;37.33;15.07;;;;;;;-3.89;65.05;97562.69;5049873;28;20033;-63
2024/02/07 06:28:47;;;;;;;35.58;15.82;;;;;;;-3.85;65.15;97563.34;5049304;28;20033;-64
2024/02/07 06:31:12;;;;;;;39.08;16.33;;;;;;;-3.98;65.09;97517.94;5049319;28;20516;-63
2024/02/07 06:33:39;;;;;;;33.95;15.43;;;;;;;-3.97;64.97;97490.88;5049610;28;20029;-63
2024/02/07 06:36:05;;;;;;;37.88;16.95;;;;;;;-3.71;65.16;97530.34;5050288;28;20025;-62
2024/02/07 06:38:31;;;;;;;33.97;14.23;;;;;;;-3.73;64.69;97516.50;5049342;27;20165;-63
2024/02/07 06:40:56;;;;;;;34.13;14.45;;;;;;;-3.83;64.58;97517.03;5049234;28;20116;-64
2024/02/07 06:43:22;;;;;;;25.92;11.80;;;;;;;-3.72;64.38;97515.56;5049154;28;20033;-63
2024/02/07 06:45:48;;;;;;;31.48;13.57;;;;;;;-3.78;64.46;97514.16;5049623;28;20033;-62
2024/02/07 06:48:13;;;;;;;29.25;14.40;;;;;;;-3.92;64.74;97507.97;5049019;28;20112;-62
2024/02/07 06:50:39;;;;;;;27.98;14.23;;;;;;;-4.10;64.88;97506.41;5049554;28;20045;-63
2024/02/07 06:53:04;;;;;;;27.77;12.27;;;;;;;-4.02;65.36;97527.75;5049104;28;20322;-65
2024/02/07 06:55:31;;;;;;;23.60;12.15;;;;;;;-4.04;64.88;97511.31;5049317;28;20114;-63
2024/02/07 06:57:57;;;;;;;28.25;12.18;;;;;;;-3.99;65.37;97506.66;5049491;28;20457;-62
2024/02/07 07:00:23;;;;;;;23.55;10.23;;;;;;;-3.89;64.46;97491.25;5049222;28;20429;-63
2024/02/07 07:02:48;;;;;;;29.02;12.23;;;;;;;-3.92;63.77;97507.97;5048329;28;20060;-64
2024/02/07 07:05:14;;;;;;;21.90;11.15;;;;;;;-4.28;64.65;97456.94;5050168;28;20033;-62
2024/02/07 07:07:39;;;;;;;25.05;10.93;;;;;;;-4.34;65.48;97428.53;5049399;28;20053;-62
2024/02/07 07:10:05;;;;;;;22.38;11.38;;;;;;;-4.10;65.59;97468.06;5048784;28;20444;-63
2024/02/07 07:12:31;;;;;;;24.70;11.20;;;;;;;-4.04;65.53;97456.41;5049602;28;20037;-63
2024/02/07 07:14:57;;;;;;;21.65;10.73;;;;;;;-4.05;65.47;97439.88;5049314;28;20360;-63
2024/02/07 07:17:22;;;;;;;25.20;9.93;;;;;;;-3.94;64.85;97426.19;5048306;28;20032;-64
2024/02/07 07:19:48;;;;;;;19.83;9.02;;;;;;;-3.91;64.69;97418.16;5049682;28;20032;-63
2024/02/07 07:22:13;;;;;;;18.73;9.30;;;;;;;-4.01;64.56;97393.50;5048666;28;20085;-63
2024/02/07 07:24:39;;;;;;;18.80;9.18;;;;;;;-4.30;64.75;97346.47;5049606;28;20110;-63
2024/02/07 07:27:05;;;;;;;27.42;11.63;;;;;;;-3.93;64.77;97391.25;5048646;28;20029;-63
2024/02/07 07:29:31;;;;;;;32.67;12.80;;;;;;;-3.84;63.74;97373.34;5046284;28;20060;-63
2024/02/07 07:31:57;;;;;;;36.05;14.93;;;;;;;-3.91;63.64;97397.22;5038397;28;20044;-65
2024/02/07 07:34:23;;;;;;;27.05;11.93;;;;;;;-3.83;63.54;97372.41;5045439;27;20025;-63
2024/02/07 07:36:51;;;;;;;22.33;9.23;;;;;;;-3.89;63.75;97377.06;5038697;28;20080;-61
2024/02/07 07:39:17;;;;;;;30.40;13.95;;;;;;;-4.12;64.21;97411.59;5038840;28;20168;-63
2024/02/07 07:41:42;;;;;;;31.95;12.70;;;;;;;-4.29;64.71;97413.44;5039705;28;20512;-64
2024/02/07 07:44:08;;;;;;;23.33;10.73;;;;;;;-4.20;64.70;97412.91;5038758;28;20029;-63
2024/02/07 07:46:33;;;;;;;19.50;9.88;;;;;;;-4.01;64.03;97414.41;5038960;28;20046;-63
2024/02/07 07:48:59;;;;;;;18.15;8.88;;;;;;;-4.02;64.44;97412.75;5038570;28;20021;-63
2024/02/07 07:51:26;;;;;;;12.93;6.72;;;;;;;-3.91;64.07;97410.31;5050658;28;20091;-64
2024/02/07 07:53:52;;;;;;;16.05;7.38;;;;;;;-3.82;63.85;97408.91;5133152;27;20039;-63
2024/02/07 07:56:19;;;;;;;14.18;7.07;;;;;;;-3.86;63.69;97402.19;5133700;27;20040;-62
2024/02/07 07:58:48;;;;;;;14.68;7.80;;;;;;;-3.82;63.80;97397.63;5133105;27;20058;-62
2024/02/07 08:01:15;;;;;;;15.13;6.78;;;;;;;-3.89;63.30;97392.75;5058490;27;20330;-61
2024/02/07 08:03:41;;;;;;;16.00;7.20;;;;;;;-3.92;64.13;97403.41;5049840;28;20053;-63
2024/02/07 08:06:09;;;;;;;14.55;7.38;;;;;;;-3.92;64.68;97398.16;5047449;28;20380;-63
2024/02/07 08:08:35;;;;;;;16.83;7.75;;;;;;;-4.22;64.47;97343.34;5036478;28;20094;-68
2024/02/07 08:11:02;;;;;;;13.95;7.68;;;;;;;-4.08;63.85;97345.16;5047907;28;20033;-67
2024/02/07 08:13:27;;;;;;;13.55;7.15;;;;;;;-3.88;64.12;97354.38;5050466;28;20045;-63
2024/02/07 08:15:53;;;;;;;13.63;7.28;;;;;;;-3.98;63.21;97346.25;5059367;27;20021;-62
2024/02/07 08:18:19;;;;;;;12.55;6.43;;;;;;;-3.80;63.70;97367.00;5136768;27;20028;-63
2024/02/07 08:20:44;;;;;;;12.55;6.82;;;;;;;-3.93;63.53;97354.66;5127917;27;20108;-57
2024/02/07 08:23:10;;;;;;;14.00;7.13;;;;;;;-4.03;64.87;97343.94;5043126;27;20038;-65
2024/02/07 08:25:35;;;;;;;10.02;5.90;;;;;;;-3.74;63.50;97348.31;5043076;27;20040;-63
2024/02/07 08:28:01;;;;;;;12.88;6.95;;;;;;;-3.92;63.61;97330.19;5051031;27;20039;-62
2024/02/07 08:30:27;;;;;;;11.82;6.72;;;;;;;-4.00;63.09;97329.00;5058583;27;20043;-63
2024/02/07 08:32:54;;;;;;;14.10;7.38;;;;;;;-4.15;63.63;97317.69;5042541;28;20036;-62
2024/02/07 08:35:19;;;;;;;11.75;6.53;;;;;;;-4.34;63.91;97332.72;5039944;28;20100;-64
2024/02/07 08:37:45;;;;;;;13.95;7.40;;;;;;;-4.40;64.81;97309.59;5040420;28;20159;-65
2024/02/07 08:40:11;;;;;;;12.88;5.20;;;;;;;-4.11;64.06;97311.34;5037689;28;20047;-64
2024/02/07 08:42:37;;;;;;;12.38;7.10;;;;;;;-4.20;63.76;97290.09;5043656;27;20040;-61
2024/02/07 08:45:04;;;;;;;14.75;7.05;;;;;;;-4.34;64.35;97254.34;5039146;28;20033;-63
2024/02/07 08:47:30;;;;;;;14.90;7.70;;;;;;;-4.18;63.26;97243.78;5044187;28;20021;-64
2024/02/07 08:49:56;;;;;;;13.30;6.65;;;;;;;-4.19;63.44;97239.50;5050184;27;20353;-63
2024/02/07 08:52:22;;;;;;;18.48;9.10;;;;;;;-4.35;63.98;97230.94;5047321;27;20424;-65
2024/02/07 08:54:48;;;;;;;24.63;10.43;;;;;;;-4.30;64.66;97248.94;5044632;27;20437;-62
2024/02/07 08:57:14;;;;;;;24.60;9.55;;;;;;;-4.44;64.12;97195.81;5045435;28;20040;-63
2024/02/07 08:59:40;;;;;;;22.33;11.32;;;;;;;-4.11;63.79;97235.56;5043810;27;20037;-64
2024/02/07 09:02:09;;;;;;;25.00;12.52;;;;;;;-4.19;64.76;97247.34;5045243;27;20051;-65
2024/02/07 09:04:34;;;;;;;21.60;9.40;;;;;;;-3.97;62.80;97251.22;5042271;28;20121;-64
2024/02/07 09:07:00;;;;;;;24.75;11.77;;;;;;;-4.11;62.66;97225.13;5039460;28;20126;-63
2024/02/07 09:09:25;;;;;;;21.60;9.60;;;;;;;-4.10;62.94;97226.78;5035496;27;20043;-63
2024/02/07 09:11:51;;;;;;;25.35;12.30;;;;;;;-4.40;63.41;97199.91;5037164;27;20356;-64
2024/02/07 09:14:16;;;;;;;23.42;10.68;;;;;;;-4.16;62.22;97207.13;5041030;28;21398;-63
2024/02/07 09:16:42;;;;;;;24.75;9.88;;;;;;;-4.49;63.02;97163.88;5037732;28;20032;-65
2024/02/07 09:19:08;;;;;;;26.48;12.00;;;;;;;-4.37;63.25;97197.09;5042092;27;20059;-65
2024/02/07 09:21:34;;;;;;;23.38;10.38;;;;;;;-4.64;62.93;97144.78;5039410;28;20503;-64
2024/02/07 09:24:00;;;;;;;25.42;11.68;;;;;;;-4.42;63.60;97172.19;5041391;28;20457;-63
2024/02/07 09:26:33;;;;;;;21.73;10.27;;;;;;;-4.20;63.35;97169.06;5042493;27;20058;-63
2024/02/07 09:28:59;;;;;;;22.95;10.68;;;;;;;-4.25;63.12;97166.75;5037473;28;20358;-62
2024/02/07 09:31:25;;;;;;;19.35;9.57;;;;;;;-4.22;63.01;97135.19;5041593;27;20437;-63
2024/02/07 09:33:50;;;;;;;22.55;10.07;;;;;;;-4.30;62.88;97095.66;5039000;28;20044;-64
2024/02/07 09:36:16;;;;;;;18.88;10.02;;;;;;;-4.24;62.42;97100.50;5032387;28;20029;-62
2024/02/07 09:38:42;;;;;;;22.63;10.43;;;;;;;-4.34;63.79;97091.56;5028687;28;20117;-64
2024/02/07 09:41:08;;;;;;;22.73;11.18;;;;;;;-4.43;64.32;97089.53;5044690;28;20037;-62
2024/02/07 09:43:34;;;;;;;20.15;9.50;;;;;;;-4.21;63.35;97074.16;5049921;27;20104;-63
2024/02/07 09:46:00;;;;;;;28.15;10.07;;;;;;;-4.17;63.16;97059.13;5051367;27;20436;-63
2024/02/07 09:48:27;;;;;;;24.38;11.55;;;;;;;-4.27;63.44;97052.81;5045146;27;20029;-64
2024/02/07 09:50:54;;;;;;;20.15;10.35;;;;;;;-4.28;64.10;97052.00;5042453;27;20129;-62
2024/02/07 09:53:24;;;;;;;20.85;9.65;;;;;;;-4.28;64.11;97036.31;5038781;28;20033;-65
2024/02/07 09:55:52;;;;;;;24.27;13.43;;;;;;;-4.39;64.05;97050.06;5038910;28;20068;-64
2024/02/07 09:58:19;;;;;;;28.58;12.88;;;;;;;-4.37;63.96;97021.22;5042760;27;20022;-63
2024/02/07 10:00:46;;;;;;;32.05;14.40;;;;;;;-4.46;63.88;97014.84;5042881;28;20037;-65
2024/02/07 10:03:14;;;;;;;27.58;10.73;;;;;;;-4.43;64.63;97001.59;5039312;28;20040;-66
2024/02/07 10:05:48;;;;;;;21.90;11.15;;;;;;;-4.38;63.99;96991.69;5039855;28;20052;-67
2024/02/07 10:08:14;;;;;;;29.42;14.20;;;;;;;-4.43;64.47;96995.50;5042090;28;20029;-66
2024/02/07 10:10:45;;;;;;;17.58;8.85;;;;;;;-4.47;64.59;96993.09;5050543;28;20452;-64
2024/02/07 10:13:14;;;;;;;31.02;13.45;;;;;;;-4.48;65.21;96967.94;5050324;28;20040;-63
2024/02/07 10:15:41;;;;;;;23.17;11.75;;;;;;;-4.48;64.42;96940.97;5049164;28;20425;-64
2024/02/07 10:18:07;;;;;;;21.35;9.05;;;;;;;-4.38;65.03;96936.81;5048429;28;20078;-66
2024/02/07 10:20:33;;;;;;;25.95;10.98;;;;;;;-4.57;64.37;96900.66;5041342;28;20037;-65
2024/02/07 10:22:58;;;;;;;25.25;12.35;;;;;;;-4.49;64.82;96900.13;5039148;28;20070;-65
2024/02/07 10:25:24;;;;;;;23.52;11.32;;;;;;;-4.41;65.37;96907.44;5038643;28;20090;-63
2024/02/07 10:27:49;;;;;;;23.45;11.73;;;;;;;-4.42;65.31;96897.94;5040188;28;20025;-63
2024/02/07 10:30:15;;;;;;;19.73;8.77;;;;;;;-4.30;64.38;96912.81;5044164;27;20445;-64
2024/02/07 10:32:41;;;;;;;25.05;10.48;;;;;;;-4.37;65.27;96874.97;5039665;28;20108;-64
2024/02/07 10:35:10;;;;;;;27.30;12.70;;;;;;;-4.54;66.42;96866.50;5038670;28;20033;-64
2024/02/07 10:37:42;;;;;;;31.35;12.60;;;;;;;-4.50;66.03;96841.84;5040236;28;20413;-65
2024/02/07 10:40:10;;;;;;;26.48;12.13;;;;;;;-4.31;65.84;96848.44;5042378;27;20045;-63
2024/02/07 10:42:38;;;;;;;26.98;12.57;;;;;;;-4.23;65.51;96833.06;5039882;28;20486;-65
2024/02/07 10:45:14;;;;;;;17.85;9.38;;;;;;;-4.21;66.31;96814.69;5039871;28;20029;-64
2024/02/07 10:47:40;;;;;;;25.92;11.05;;;;;;;-4.19;65.47;96805.78;5046283;28;20029;-63
2024/02/07 10:50:09;;;;;;;22.70;10.32;;;;;;;-4.54;65.31;96733.34;5037278;27;20064;-65
2024/02/07 10:52:39;;;;;;;29.65;11.90;;;;;;;-4.48;65.43;96742.50;5038675;28;20033;-63
2024/02/07 10:55:08;;;;;;;22.75;10.35;;;;;;;-4.29;65.41;96765.59;5038281;28;20029;-62
2024/02/07 10:57:41;;;;;;;25.77;10.75;;;;;;;-4.39;66.66;96761.91;5039598;28;20021;-62
2024/02/07 11:00:07;;;;;;;19.65;9.65;;;;;;;-4.36;66.57;96744.28;5046828;28;20479;-64
2024/02/07 11:02:34;;;;;;;21.13;7.80;;;;;;;-4.14;66.62;96752.38;5050347;27;20390;-65
2024/02/07 11:05:04;;;;;;;25.60;11.65;;;;;;;-4.19;66.95;96731.81;5131961;27;20114;-65
2024/02/07 11:07:31;;;;;;;26.65;11.60;;;;;;;-4.24;66.89;96741.72;5127018;27;20037;-64
2024/02/07 11:09:57;;;;;;;18.63;9.75;;;;;;;-4.18;66.20;96747.38;5044596;28;20064;-64
2024/02/07 11:12:23;;;;;;;22.63;11.35;;;;;;;-4.14;66.08;96755.84;5049240;28;20079;-66
2024/02/07 11:14:50;;;;;;;21.05;9.32;;;;;;;-4.12;65.72;96760.94;5048501;28;20052;-62
2024/02/07 11:17:16;;;;;;;17.05;8.93;;;;;;;-4.27;65.94;96761.09;5044670;28;20140;-64
2024/02/07 11:19:43;;;;;;;15.70;7.50;;;;;;;-4.06;65.04;96766.56;5041995;28;20469;-67
2024/02/07 11:22:18;;;;;;;15.93;9.07;;;;;;;-4.24;65.62;96745.19;5037358;28;20162;-65
2024/02/07 11:24:45;;;;;;;17.73;8.80;;;;;;;-4.26;65.55;96744.47;5037585;28;20021;-66
2024/02/07 11:27:12;;;;;;;18.83;9.88;;;;;;;-4.47;67.45;96747.63;5035887;28;20465;-66
2024/02/07 11:29:38;;;;;;;19.13;10.88;;;;;;;-4.53;67.26;96739.38;5047952;28;20039;-66
2024/02/07 11:32:05;;;;;;;18.92;7.90;;;;;;;-4.34;66.34;96741.53;5048339;28;20116;-66
2024/02/07 11:34:31;;;;;;;19.85;9.57;;;;;;;-4.24;66.12;96758.25;5049005;28;20077;-65
2024/02/07 11:37:03;;;;;;;22.08;9.15;;;;;;;-4.19;65.61;96737.03;5048627;28;20039;-65
2024/02/07 11:39:36;;;;;;;16.13;8.90;;;;;;;-4.26;66.60;96761.91;5040314;28;20057;-64
2024/02/07 11:42:01;;;;;;;20.20;10.82;;;;;;;-4.31;66.41;96751.78;5028660;28;20025;-66
2024/02/07 11:44:28;;;;;;;21.25;9.93;;;;;;;-4.33;66.80;96738.84;5122280;27;20034;-65
2024/02/07 11:46:55;;;;;;;20.25;10.65;;;;;;;-4.36;66.92;96741.66;5132255;27;20121;-64
2024/02/07 11:49:28;;;;;;;23.85;11.57;;;;;;;-4.19;66.79;96731.81;5126667;27;20484;-65
2024/02/07 11:51:59;;;;;;;16.88;9.07;;;;;;;-4.12;65.92;96721.75;5132181;27;20034;-66
2024/02/07 11:54:30;;;;;;;22.58;11.00;;;;;;;-4.37;67.10;96695.59;5052820;27;20104;-61
2024/02/07 11:56:58;;;;;;;21.27;11.82;;;;;;;-4.34;66.65;96665.78;5041866;28;20090;-62
2024/02/07 11:59:24;;;;;;;25.25;12.00;;;;;;;-4.29;66.56;96668.94;5047767;28;20108;-63
2024/02/07 12:01:50;;;;;;;23.60;12.45;;;;;;;-4.40;68.95;96663.63;5048571;28;20234;-65
2024/02/07 12:04:16;;;;;;;19.10;9.65;;;;;;;-4.28;66.89;96669.75;5048943;28;20025;-66
2024/02/07 12:06:45;;;;;;;26.50;11.75;;;;;;;-4.34;67.58;96640.53;5049227;28;20044;-65
2024/02/07 12:09:10;;;;;;;22.67;11.85;;;;;;;-4.33;67.40;96621.28;5051694;28;20033;-64
2024/02/07 12:11:37;;;;;;;25.63;10.93;;;;;;;-4.15;66.16;96625.28;5031483;28;20102;-63
2024/02/07 12:14:02;;;;;;;21.50;9.73;;;;;;;-4.15;66.90;96622.69;5028564;28;20029;-64
2024/02/07 12:16:28;;;;;;;17.90;9.50;;;;;;;-4.07;65.96;96638.66;5046220;28;20040;-62
2024/02/07 12:18:55;;;;;;;18.60;7.65;;;;;;;-4.12;66.15;96617.22;5046664;28;20349;-64
2024/02/07 12:21:20;;;;;;;24.95;7.65;;;;;;;-4.15;66.74;96633.13;5047998;28;20033;-63
2024/02/07 12:23:46;;;;;;;22.60;12.25;;;;;;;-4.47;67.60;96609.22;5040642;28;20029;-62
2024/02/07 12:26:12;;;;;;;18.48;9.20;;;;;;;-4.49;68.48;96592.84;5028738;28;20041;-60